Time;durP1;ratioP1;P1;durP2;ratioP2;P2;SDS_P1;SDS_P2;PMS_P1;PMS_P2;Temp;Humidity;BMP_temperature;BMP_pressure;BME280_temperature;BME280_humidity;BME280_pressure;Samples;Min_cycle;Max_cycle;Signal;HPM_P1;HPM_P2
2022/11/20 00:00:55;;;;;;;8.63;2.50;;;4.20;99.90;;;;;;5072072;28;20415;-68
2022/11/20 00:03:21;;;;;;;4.83;1.63;;;4.20;99.90;;;;;;5071321;28;20638;-68
2022/11/20 00:05:46;;;;;;;3.90;1.80;;;4.20;99.90;;;;;;5070649;28;20216;-67
2022/11/20 00:08:12;;;;;;;4.90;1.30;;;4.20;99.90;;;;;;5071401;28;20645;-67
2022/11/20 00:10:40;;;;;;;1.90;1.30;;;4.20;99.90;;;;;;5071731;28;20181;-67
2022/11/20 00:13:06;;;;;;;4.90;2.23;;;4.10;99.90;;;;;;5070557;28;20795;-67
2022/11/20 00:15:32;;;;;;;6.20;2.40;;;4.10;99.90;;;;;;5063919;28;20415;-67
2022/11/20 00:17:57;;;;;;;3.07;1.80;;;4.10;99.90;;;;;;5065527;28;20948;-67
2022/11/20 00:20:23;;;;;;;2.70;1.77;;;4.10;99.90;;;;;;5068629;28;20264;-67
2022/11/20 00:22:49;;;;;;;3.23;1.47;;;4.10;99.90;;;;;;5074693;28;20189;-67
2022/11/20 00:25:15;;;;;;;3.30;1.60;;;4.10;99.90;;;;;;5075084;28;20181;-67
2022/11/20 00:27:41;;;;;;;3.63;1.67;;;4.10;99.90;;;;;;5075138;28;20466;-67
2022/11/20 00:30:07;;;;;;;2.03;1.10;;;4.10;99.90;;;;;;5074501;28;20763;-67
2022/11/20 00:32:33;;;;;;;3.13;1.70;;;4.10;99.90;;;;;;5074953;28;20534;-67
2022/11/20 00:34:58;;;;;;;2.67;1.27;;;4.10;99.90;;;;;;5074639;28;20439;-67
2022/11/20 00:37:24;;;;;;;3.07;1.60;;;4.00;99.90;;;;;;5074912;28;20189;-68
2022/11/20 00:39:49;;;;;;;3.00;1.43;;;4.00;99.90;;;;;;5074011;28;20189;-68
2022/11/20 00:42:15;;;;;;;2.73;1.43;;;4.00;99.90;;;;;;5073781;28;20260;-68
2022/11/20 00:44:40;;;;;;;2.90;1.63;;;4.00;99.90;;;;;;5073111;28;20705;-68
2022/11/20 00:47:06;;;;;;;2.50;1.40;;;4.00;99.90;;;;;;5073959;28;20208;-68
2022/11/20 00:49:31;;;;;;;3.00;1.77;;;3.90;99.90;;;;;;5060311;28;20673;-68
2022/11/20 00:51:57;;;;;;;4.80;1.87;;;3.90;99.90;;;;;;5073485;28;20213;-68
2022/11/20 00:54:23;;;;;;;2.63;1.63;;;3.90;99.90;;;;;;5074376;28;20181;-68
2022/11/20 00:56:48;;;;;;;1.93;1.03;;;3.90;99.90;;;;;;5074390;28;20181;-69
2022/11/20 00:59:14;;;;;;;2.47;1.27;;;3.90;99.90;;;;;;5073870;28;20527;-66
2022/11/20 01:01:39;;;;;;;9.13;1.20;;;3.90;99.90;;;;;;5074115;28;20189;-68
2022/11/20 01:04:05;;;;;;;2.77;1.20;;;3.90;99.90;;;;;;5074298;28;20181;-68
2022/11/20 01:06:34;;;;;;;3.10;0.97;;;3.90;99.90;;;;;;5073588;28;20236;-66
2022/11/20 01:09:02;;;;;;;2.60;1.77;;;3.90;99.90;;;;;;5072683;28;20173;-68
2022/11/20 01:11:30;;;;;;;5.60;1.70;;;3.80;99.90;;;;;;5074137;28;20757;-68
2022/11/20 01:13:58;;;;;;;2.33;1.37;;;3.70;99.90;;;;;;5073564;28;20443;-68
2022/11/20 01:16:25;;;;;;;3.77;1.47;;;3.70;99.90;;;;;;5066048;28;20811;-68
2022/11/20 01:18:53;;;;;;;3.60;1.50;;;3.70;99.90;;;;;;5074155;28;20419;-68
2022/11/20 01:21:26;;;;;;;2.63;1.57;;;3.70;99.90;;;;;;5067429;28;20445;-68
2022/11/20 01:23:52;;;;;;;5.77;2.03;;;3.60;99.90;;;;;;5073781;28;20422;-66
2022/11/20 01:26:23;;;;;;;3.23;1.67;;;3.60;99.90;;;;;;5074193;28;20467;-66
2022/11/20 01:28:49;;;;;;;3.10;2.00;;;3.60;99.90;;;;;;5073209;28;20264;-66
2022/11/20 01:31:19;;;;;;;3.93;2.03;;;3.60;99.90;;;;;;5074380;28;20909;-66
2022/11/20 01:33:47;;;;;;;2.00;1.27;;;3.60;99.90;;;;;;5073265;28;20193;-66
2022/11/20 01:36:14;;;;;;;1.83;1.30;;;3.60;99.90;;;;;;5073716;28;20431;-66
2022/11/20 01:38:40;;;;;;;2.47;1.33;;;3.60;99.90;;;;;;5073296;28;20864;-66
2022/11/20 01:41:06;;;;;;;3.97;2.23;;;3.70;99.90;;;;;;5073766;28;20411;-66
2022/11/20 01:43:32;;;;;;;3.77;1.73;;;3.60;99.90;;;;;;5072663;28;20423;-66
2022/11/20 01:46:18;;;;;;;4.27;2.30;;;3.60;99.90;;;;;;5073490;28;20455;-66
2022/11/20 01:48:54;;;;;;;2.80;1.73;;;3.60;99.90;;;;;;5061463;28;20199;-66
2022/11/20 01:51:34;;;;;;;3.73;1.97;;;3.60;99.90;;;;;;5073518;28;20415;-67
2022/11/20 01:54:05;;;;;;;2.50;1.53;;;3.60;99.90;;;;;;5073127;28;20422;-67
2022/11/20 01:56:36;;;;;;;7.13;2.50;;;3.60;99.90;;;;;;5073062;28;20911;-67
2022/11/20 01:59:03;;;;;;;3.30;1.90;;;3.60;99.90;;;;;;5068886;28;20775;-67
2022/11/20 02:01:29;;;;;;;6.50;2.50;;;3.60;99.90;;;;;;5058989;28;20423;-67
2022/11/20 02:03:56;;;;;;;4.70;2.13;;;3.60;99.90;;;;;;5073324;28;20418;-67
2022/11/20 02:06:29;;;;;;;4.47;2.33;;;3.60;99.90;;;;;;5072573;28;20219;-67
2022/11/20 02:08:55;;;;;;;5.57;2.60;;;3.60;99.90;;;;;;5072830;28;20447;-67
2022/11/20 02:11:21;;;;;;;3.60;2.30;;;3.60;99.90;;;;;;5073115;28;20497;-67
2022/11/20 02:13:47;;;;;;;3.10;2.30;;;3.60;99.90;;;;;;5072529;28;20610;-67
2022/11/20 02:16:27;;;;;;;5.20;2.57;;;3.60;99.90;;;;;;5064912;28;20449;-67
2022/11/20 02:18:55;;;;;;;4.97;2.87;;;3.60;99.90;;;;;;5072915;28;20431;-67
2022/11/20 02:21:20;;;;;;;5.70;2.80;;;3.60;99.90;;;;;;5066171;28;20419;-67
2022/11/20 02:24:09;;;;;;;4.70;2.57;;;3.60;99.90;;;;;;5072072;28;20745;-67
2022/11/20 02:26:47;;;;;;;5.23;2.57;;;3.50;99.90;;;;;;5072585;28;20251;-67
2022/11/20 02:29:16;;;;;;;4.97;2.90;;;3.50;99.90;;;;;;5060115;28;20527;-67
2022/11/20 02:31:43;;;;;;;5.67;2.43;;;3.50;99.90;;;;;;5072369;28;20418;-67
2022/11/20 02:34:09;;;;;;;5.17;2.50;;;3.50;99.90;;;;;;5072260;28;20818;-67
2022/11/20 02:36:36;;;;;;;5.80;3.40;;;3.50;99.90;;;;;;5072681;28;20419;-67
2022/11/20 02:39:03;;;;;;;7.70;3.27;;;3.60;99.90;;;;;;5072408;28;20859;-67
2022/11/20 02:41:36;;;;;;;6.33;2.83;;;3.50;99.90;;;;;;5053165;28;20415;-67
2022/11/20 02:44:03;;;;;;;3.90;2.43;;;3.60;99.90;;;;;;5072154;28;20496;-67
2022/11/20 02:46:29;;;;;;;5.87;2.37;;;3.60;99.90;;;;;;5071475;28;20459;-67
2022/11/20 02:48:55;;;;;;;5.70;2.60;;;3.60;99.90;;;;;;5072509;28;20423;-67
2022/11/20 02:51:21;;;;;;;4.80;2.63;;;3.60;99.90;;;;;;5072319;28;20411;-67
2022/11/20 02:53:47;;;;;;;3.80;2.70;;;3.60;99.90;;;;;;5071504;28;20200;-67
2022/11/20 02:56:13;;;;;;;6.93;3.03;;;3.50;99.90;;;;;;5072277;28;20900;-67
2022/11/20 02:58:39;;;;;;;2.97;1.77;;;3.50;99.90;;;;;;5072065;28;20290;-67
2022/11/20 03:01:04;;;;;;;9.57;2.60;;;3.50;99.90;;;;;;5072180;28;20749;-67
2022/11/20 03:03:30;;;;;;;5.67;2.50;;;3.50;99.90;;;;;;5071188;28;20212;-67
2022/11/20 03:05:58;;;;;;;3.60;1.83;;;3.50;99.90;;;;;;5071443;28;20273;-67
2022/11/20 03:08:23;;;;;;;4.63;2.60;;;3.50;99.90;;;;;;5071809;28;20181;-67
2022/11/20 03:10:49;;;;;;;4.27;2.70;;;3.50;99.90;;;;;;5072138;28;20498;-67
2022/11/20 03:13:15;;;;;;;4.67;2.60;;;3.50;99.90;;;;;;5071048;28;20672;-68
2022/11/20 03:15:40;;;;;;;4.27;2.10;;;3.50;99.90;;;;;;5064434;28;20618;-68
2022/11/20 03:18:06;;;;;;;3.57;2.60;;;3.50;99.90;;;;;;5071878;28;20272;-66
2022/11/20 03:20:33;;;;;;;7.10;2.73;;;3.50;99.90;;;;;;5065050;28;20188;-66
2022/11/20 03:22:59;;;;;;;4.30;2.40;;;3.50;99.90;;;;;;5071256;28;20181;-66
2022/11/20 03:25:25;;;;;;;13.53;2.87;;;3.50;99.90;;;;;;5071813;28;20462;-67
2022/11/20 03:27:50;;;;;;;4.43;2.40;;;3.40;99.90;;;;;;5071750;28;20209;-66
2022/11/20 03:30:16;;;;;;;4.70;2.80;;;3.50;99.90;;;;;;5071342;28;20213;-66
2022/11/20 03:32:42;;;;;;;4.37;2.33;;;3.40;99.90;;;;;;5071649;28;20588;-66
2022/11/20 03:35:08;;;;;;;3.40;2.30;;;3.40;99.90;;;;;;5071306;28;20200;-66
2022/11/20 03:37:33;;;;;;;8.83;2.70;;;3.40;99.90;;;;;;5067940;28;20173;-66
2022/11/20 03:39:59;;;;;;;3.10;2.07;;;3.30;99.90;;;;;;5071799;28;20753;-66
2022/11/20 03:45:09;;;;;;;3.40;2.20;;;3.30;99.90;;;;;;5071763;28;20216;-66
2022/11/20 03:47:34;;;;;;;3.70;1.90;;;3.30;99.90;;;;;;5071798;28;20919;-67
2022/11/20 03:50:00;;;;;;;4.07;2.30;;;3.20;99.90;;;;;;5071589;28;20188;-67
2022/11/20 03:52:25;;;;;;;6.83;2.63;;;3.20;99.90;;;;;;5072548;28;20590;-67
2022/11/20 03:54:51;;;;;;;3.43;2.10;;;3.20;99.90;;;;;;5075344;28;20189;-67
2022/11/20 03:57:16;;;;;;;3.80;2.20;;;3.10;99.90;;;;;;5075880;28;20185;-66
2022/11/20 03:59:42;;;;;;;2.17;1.77;;;3.20;99.90;;;;;;5075492;28;20216;-67
2022/11/20 04:02:07;;;;;;;6.13;2.60;;;3.20;99.90;;;;;;5075332;28;20216;-67
2022/11/20 04:04:33;;;;;;;3.87;1.80;;;3.30;99.90;;;;;;5076093;28;20192;-68
2022/11/20 04:06:59;;;;;;;7.00;2.37;;;3.40;99.90;;;;;;5074697;28;20243;-67
2022/11/20 04:09:24;;;;;;;3.53;2.30;;;3.40;99.90;;;;;;5057140;28;20185;-66
2022/11/20 04:11:50;;;;;;;6.40;2.90;;;3.40;99.90;;;;;;5075516;28;20192;-66
2022/11/20 04:14:16;;;;;;;4.37;2.80;;;3.50;99.90;;;;;;5072484;28;20191;-66
2022/11/20 04:16:42;;;;;;;4.63;2.67;;;3.50;99.90;;;;;;5069742;28;20247;-66
2022/11/20 04:19:13;;;;;;;5.00;2.63;;;3.60;99.90;;;;;;5075717;28;21033;-66
2022/11/20 04:21:39;;;;;;;3.90;2.23;;;3.60;99.90;;;;;;5068331;28;20470;-66
2022/11/20 04:24:05;;;;;;;4.13;2.70;;;3.70;99.90;;;;;;5075301;28;20427;-66
2022/11/20 04:26:31;;;;;;;3.93;2.27;;;3.70;99.90;;;;;;5076381;28;20218;-66
2022/11/20 04:29:00;;;;;;;7.47;3.17;;;3.70;99.90;;;;;;5077323;28;20442;-66
2022/11/20 04:31:28;;;;;;;3.17;2.17;;;3.70;99.90;;;;;;5079108;28;20178;-66
2022/11/20 04:33:54;;;;;;;3.97;2.03;;;3.70;99.90;;;;;;5083087;28;20439;-66
2022/11/20 04:36:26;;;;;;;5.97;2.17;;;3.70;99.90;;;;;;5100164;28;20493;-66
2022/11/20 04:39:03;;;;;;;7.57;3.10;;;3.70;99.90;;;;;;5093512;28;20416;-67
2022/11/20 04:41:32;;;;;;;7.73;2.07;;;3.70;99.90;;;;;;5083317;28;20472;-66
2022/11/20 04:44:02;;;;;;;7.37;2.30;;;3.70;99.90;;;;;;5102118;28;20419;-66
2022/11/20 04:46:28;;;;;;;3.90;2.30;;;3.70;99.90;;;;;;5102142;28;20458;-66
2022/11/20 04:48:54;;;;;;;4.17;2.03;;;3.70;99.90;;;;;;5095820;28;20415;-66
2022/11/20 04:51:19;;;;;;;3.80;2.27;;;3.70;99.90;;;;;;5076900;28;20477;-66
2022/11/20 04:53:45;;;;;;;4.43;2.27;;;3.70;99.90;;;;;;5067241;28;20631;-66
2022/11/20 04:56:12;;;;;;;5.60;2.20;;;3.80;99.90;;;;;;5057909;28;20185;-67
2022/11/20 04:58:39;;;;;;;3.80;2.47;;;3.70;99.90;;;;;;5074222;28;20211;-66
2022/11/20 05:01:13;;;;;;;2.33;1.70;;;3.80;99.90;;;;;;5074283;28;20427;-67
2022/11/20 05:03:40;;;;;;;4.70;2.67;;;3.80;99.90;;;;;;5065134;28;20462;-66
2022/11/20 05:06:07;;;;;;;9.10;2.23;;;3.80;99.90;;;;;;5071297;28;20462;-66
2022/11/20 05:08:33;;;;;;;8.23;2.83;;;3.80;99.90;;;;;;5074020;28;20519;-66
2022/11/20 05:11:04;;;;;;;3.33;1.67;;;3.80;99.90;;;;;;5074427;28;20428;-67
2022/11/20 05:13:30;;;;;;;3.60;2.23;;;3.80;99.90;;;;;;5073091;28;20908;-67
2022/11/20 05:16:00;;;;;;;3.77;1.60;;;3.90;99.90;;;;;;5074424;28;20435;-67
2022/11/20 05:18:26;;;;;;;3.60;1.80;;;3.90;99.90;;;;;;5067390;28;20231;-67
2022/11/20 05:20:56;;;;;;;3.80;1.73;;;4.00;99.90;;;;;;5074503;28;20423;-67
2022/11/20 05:23:21;;;;;;;3.60;1.90;;;3.90;99.90;;;;;;5073520;28;20204;-67
2022/11/20 05:25:47;;;;;;;4.17;1.73;;;3.90;99.90;;;;;;5073765;28;20462;-67
2022/11/20 05:28:12;;;;;;;1.90;1.30;;;3.90;99.90;;;;;;5073607;28;20203;-68
2022/11/20 05:30:38;;;;;;;2.90;1.20;;;3.90;99.90;;;;;;5073817;28;20224;-67
2022/11/20 05:33:03;;;;;;;2.60;1.20;;;3.90;99.90;;;;;;5073555;28;20185;-67
2022/11/20 05:35:29;;;;;;;3.20;1.33;;;3.90;99.90;;;;;;5073722;28;20208;-67
2022/11/20 05:37:55;;;;;;;2.53;1.50;;;3.80;99.90;;;;;;5073539;28;20181;-67
2022/11/20 05:40:20;;;;;;;5.20;2.63;;;3.80;99.90;;;;;;5073243;28;20193;-67
2022/11/20 05:42:46;;;;;;;4.93;2.50;;;3.80;99.90;;;;;;5073482;28;20598;-67
2022/11/20 05:45:11;;;;;;;6.20;2.60;;;3.80;99.90;;;;;;5073095;28;20181;-67
2022/11/20 05:47:37;;;;;;;2.40;1.90;;;3.80;99.90;;;;;;5073531;28;20213;-67
2022/11/20 05:50:02;;;;;;;3.80;2.57;;;3.80;99.90;;;;;;5073505;28;20693;-66
2022/11/20 05:52:29;;;;;;;4.23;2.00;;;3.80;99.90;;;;;;5072950;28;20201;-66
2022/11/20 05:54:55;;;;;;;3.27;1.37;;;3.80;99.90;;;;;;5072750;28;20219;-67
2022/11/20 05:57:20;;;;;;;3.10;1.37;;;3.80;99.90;;;;;;5072837;28;20474;-66
2022/11/20 05:59:46;;;;;;;4.43;2.63;;;3.90;99.90;;;;;;5072269;28;20185;-66
2022/11/20 06:02:12;;;;;;;4.00;2.20;;;3.90;99.90;;;;;;5072362;28;20189;-66
2022/11/20 06:04:37;;;;;;;4.20;1.53;;;3.90;99.90;;;;;;5072413;28;20768;-66
2022/11/20 06:07:05;;;;;;;2.70;1.40;;;3.90;99.90;;;;;;5066873;28;20212;-66
2022/11/20 06:09:31;;;;;;;2.57;1.30;;;3.90;99.90;;;;;;5072393;28;20192;-66
2022/11/20 06:11:56;;;;;;;2.73;1.30;;;3.90;99.90;;;;;;5072290;28;20423;-66
2022/11/20 06:14:22;;;;;;;2.40;1.43;;;3.90;99.90;;;;;;5068511;28;20260;-66
2022/11/20 06:16:47;;;;;;;2.53;1.70;;;3.90;99.90;;;;;;5066807;28;20276;-66
2022/11/20 06:19:13;;;;;;;2.53;1.77;;;3.90;99.90;;;;;;5054066;28;20200;-66
2022/11/20 06:21:39;;;;;;;5.03;2.00;;;3.90;99.90;;;;;;5071756;28;20546;-66
2022/11/20 06:24:04;;;;;;;6.40;1.57;;;3.90;99.90;;;;;;5071834;28;20195;-67
2022/11/20 06:26:30;;;;;;;6.20;2.37;;;3.90;99.90;;;;;;5072085;28;20213;-67
2022/11/20 06:28:56;;;;;;;3.50;1.73;;;3.90;99.90;;;;;;5071558;28;20216;-67
2022/11/20 06:31:23;;;;;;;2.33;1.30;;;3.90;99.90;;;;;;5071892;28;20633;-66
2022/11/20 06:33:49;;;;;;;3.80;2.00;;;3.90;99.90;;;;;;5071349;28;20201;-67
2022/11/20 06:36:17;;;;;;;2.63;1.40;;;3.90;99.90;;;;;;5071761;28;20560;-67
2022/11/20 06:38:43;;;;;;;4.90;1.67;;;4.00;99.90;;;;;;5071665;28;20189;-67
2022/11/20 06:41:15;;;;;;;5.50;2.03;;;4.00;99.90;;;;;;5071996;28;20441;-67
2022/11/20 06:43:41;;;;;;;3.30;1.63;;;4.00;99.90;;;;;;5058385;28;20423;-67
2022/11/20 06:46:07;;;;;;;3.77;1.60;;;4.00;99.90;;;;;;5071572;28;20485;-67
2022/11/20 06:48:32;;;;;;;2.57;1.67;;;4.00;99.90;;;;;;5071614;28;20486;-67
2022/11/20 06:50:58;;;;;;;2.20;1.67;;;4.00;99.90;;;;;;5071709;28;20273;-67
2022/11/20 06:53:24;;;;;;;2.50;1.53;;;4.10;99.90;;;;;;5070875;28;20276;-67
2022/11/20 06:55:51;;;;;;;5.07;2.10;;;4.00;99.90;;;;;;5070321;28;20507;-67
2022/11/20 06:58:17;;;;;;;2.60;1.10;;;4.10;99.90;;;;;;5071995;28;20195;-67
2022/11/20 07:00:44;;;;;;;3.90;1.57;;;4.10;99.90;;;;;;5072156;28;20915;-67
2022/11/20 07:03:11;;;;;;;2.33;1.13;;;4.10;99.90;;;;;;5071399;28;20903;-67
2022/11/20 07:05:38;;;;;;;3.90;1.60;;;4.10;99.90;;;;;;5071283;28;20411;-66
2022/11/20 07:08:04;;;;;;;2.23;1.40;;;4.20;99.90;;;;;;5072004;28;20427;-67
2022/11/20 07:10:30;;;;;;;5.37;2.53;;;4.20;99.90;;;;;;5072011;28;20934;-67
2022/11/20 07:12:56;;;;;;;1.90;1.00;;;4.20;99.90;;;;;;5071559;28;20447;-68
2022/11/20 07:15:24;;;;;;;2.90;1.80;;;4.20;99.90;;;;;;5068608;28;20182;-68
2022/11/20 07:17:49;;;;;;;2.40;1.67;;;4.20;99.90;;;;;;5071896;28;20181;-68
2022/11/20 07:20:15;;;;;;;2.10;1.30;;;4.20;99.90;;;;;;5071556;28;20425;-68
2022/11/20 07:22:41;;;;;;;3.00;1.80;;;4.20;99.90;;;;;;5071490;28;20197;-68
2022/11/20 07:25:08;;;;;;;3.40;1.80;;;4.30;99.90;;;;;;5071489;28;20197;-66
2022/11/20 07:27:34;;;;;;;3.33;1.33;;;4.30;99.90;;;;;;5071280;28;20213;-66
2022/11/20 07:30:00;;;;;;;2.43;1.47;;;4.30;99.90;;;;;;5071080;28;21245;-67
2022/11/20 07:32:26;;;;;;;5.33;1.50;;;4.30;99.90;;;;;;5071382;28;20181;-66
2022/11/20 07:34:51;;;;;;;4.70;1.60;;;4.30;99.90;;;;;;5071452;28;20444;-66
2022/11/20 07:37:17;;;;;;;5.60;1.83;;;4.40;99.90;;;;;;5071950;28;20595;-66
2022/11/20 07:39:43;;;;;;;6.73;2.30;;;4.40;99.90;;;;;;5071431;28;20294;-67
2022/11/20 07:42:09;;;;;;;4.17;2.07;;;4.40;99.90;;;;;;5065328;28;20509;-66
2022/11/20 07:44:35;;;;;;;6.23;2.70;;;4.40;99.90;;;;;;5066309;28;20177;-71
2022/11/20 07:47:00;;;;;;;4.43;2.03;;;4.40;99.90;;;;;;5067816;28;20991;-66
2022/11/20 07:49:26;;;;;;;2.27;1.40;;;4.50;99.90;;;;;;5071313;28;20177;-67
2022/11/20 07:51:55;;;;;;;2.60;1.53;;;4.40;99.90;;;;;;5069878;28;20264;-67
2022/11/20 07:54:21;;;;;;;5.57;1.80;;;4.50;99.90;;;;;;5069430;28;20371;-67
2022/11/20 07:56:47;;;;;;;3.00;1.63;;;4.50;99.90;;;;;;5071027;28;20506;-71
2022/11/20 07:59:13;;;;;;;3.93;1.60;;;4.50;99.90;;;;;;5070634;28;20431;-67
2022/11/20 08:01:40;;;;;;;5.73;2.50;;;4.50;99.90;;;;;;5070972;28;20426;-67
2022/11/20 08:04:06;;;;;;;3.87;2.00;;;4.60;99.90;;;;;;5070524;28;20185;-67
2022/11/20 08:06:31;;;;;;;4.73;1.53;;;4.70;99.90;;;;;;5070304;28;20945;-67
2022/11/20 08:08:57;;;;;;;7.93;2.00;;;4.70;99.90;;;;;;5071129;28;20189;-67
2022/11/20 08:14:12;;;;;;;3.07;1.40;;;4.90;99.90;;;;;;5069970;28;20191;-67
2022/11/20 08:16:46;;;;;;;3.63;1.63;;;4.90;99.90;;;;;;5065056;28;20450;-69
2022/11/20 08:19:14;;;;;;;3.00;1.47;;;4.90;99.90;;;;;;5071253;28;20411;-67
2022/11/20 08:21:40;;;;;;;1.80;1.27;;;4.90;99.90;;;;;;5063947;28;20796;-68
2022/11/20 08:24:06;;;;;;;2.13;1.23;;;4.90;99.90;;;;;;5057576;28;20419;-68
2022/11/20 08:26:32;;;;;;;3.10;1.67;;;4.90;99.90;;;;;;5071507;28;20459;-68
2022/11/20 08:28:58;;;;;;;21.30;1.67;;;4.90;99.90;;;;;;5065723;28;20424;-68
2022/11/20 08:31:26;;;;;;;3.40;1.43;;;4.90;99.90;;;;;;5063349;28;20219;-69
2022/11/20 08:33:52;;;;;;;3.43;1.60;;;5.00;99.90;;;;;;5070663;28;20470;-67
2022/11/20 08:36:18;;;;;;;1.93;1.07;;;5.00;99.90;;;;;;5062755;28;20913;-67
2022/11/20 08:38:53;;;;;;;1.63;0.83;;;5.10;99.90;;;;;;5072398;28;20458;-67
2022/11/20 08:41:28;;;;;;;1.93;1.10;;;5.10;99.90;;;;;;5074936;28;20415;-67
2022/11/20 08:43:55;;;;;;;1.50;0.80;;;5.20;99.90;;;;;;5074447;28;20453;-67
2022/11/20 08:46:21;;;;;;;2.33;0.90;;;5.20;99.90;;;;;;5074708;28;20455;-68
2022/11/20 08:48:47;;;;;;;4.23;1.10;;;5.20;99.90;;;;;;5074561;28;21130;-68
2022/11/20 08:51:13;;;;;;;2.70;1.03;;;5.20;99.90;;;;;;5074019;28;20423;-68
2022/11/20 08:53:39;;;;;;;2.00;0.97;;;5.30;99.90;;;;;;5074069;28;20246;-68
2022/11/20 08:56:05;;;;;;;1.70;1.10;;;5.40;99.90;;;;;;5074748;28;20506;-68
2022/11/20 08:58:31;;;;;;;1.60;0.83;;;5.50;99.90;;;;;;5074227;28;20561;-68
2022/11/20 09:00:57;;;;;;;2.13;0.97;;;5.50;99.90;;;;;;5074432;28;20185;-68
2022/11/20 09:03:22;;;;;;;4.60;1.30;;;5.50;99.90;;;;;;5073495;28;20193;-68
2022/11/20 09:05:48;;;;;;;1.40;0.70;;;5.50;99.90;;;;;;5073181;28;20366;-68
2022/11/20 09:08:14;;;;;;;1.40;0.80;;;5.50;99.90;;;;;;5074231;28;20538;-68
2022/11/20 09:10:39;;;;;;;3.00;1.40;;;5.60;99.90;;;;;;5074418;28;20636;-68
2022/11/20 09:13:05;;;;;;;2.00;0.77;;;5.60;99.90;;;;;;5073596;28;20534;-68
2022/11/20 09:15:31;;;;;;;1.70;1.00;;;5.60;99.90;;;;;;5065816;28;20189;-68
2022/11/20 09:18:02;;;;;;;1.90;0.87;;;5.60;99.90;;;;;;5074276;28;20759;-68
2022/11/20 09:20:29;;;;;;;2.03;1.17;;;5.60;99.90;;;;;;5067515;28;20288;-68
2022/11/20 09:22:55;;;;;;;3.00;1.23;;;5.50;99.90;;;;;;5073290;28;20430;-68
2022/11/20 09:25:21;;;;;;;1.50;0.70;;;5.50;99.90;;;;;;5052610;28;20446;-68
2022/11/20 09:27:47;;;;;;;3.93;1.33;;;5.60;99.90;;;;;;5073701;28;20459;-68
2022/11/20 09:30:14;;;;;;;3.30;1.37;;;5.60;99.90;;;;;;5073499;28;20415;-68
2022/11/20 09:32:40;;;;;;;2.33;1.20;;;5.60;99.90;;;;;;5073437;28;20420;-68
2022/11/20 09:35:06;;;;;;;1.67;0.70;;;5.50;99.90;;;;;;5073451;28;20446;-68
2022/11/20 09:37:31;;;;;;;1.87;0.93;;;5.50;99.90;;;;;;5073649;28;20196;-68
2022/11/20 09:39:57;;;;;;;5.43;1.97;;;5.50;99.90;;;;;;5073324;28;20188;-68
2022/11/20 09:42:47;;;;;;;5.93;1.90;;;5.50;99.90;;;;;;5073017;28;20208;-68
2022/11/20 09:45:16;;;;;;;4.73;1.30;;;5.50;99.90;;;;;;5073169;28;20195;-68
2022/11/20 09:48:17;;;;;;;1.90;0.97;;;5.50;99.90;;;;;;5073501;28;20466;-68
2022/11/20 09:50:58;;;;;;;1.80;1.00;;;5.50;99.90;;;;;;5064165;28;20484;-68
2022/11/20 09:53:51;;;;;;;1.47;0.70;;;5.50;99.90;;;;;;5059614;28;20506;-68
2022/11/20 09:56:18;;;;;;;1.67;0.73;;;5.50;99.90;;;;;;5073512;28;20462;-68
2022/11/20 09:58:53;;;;;;;1.20;0.70;;;5.60;99.90;;;;;;5073188;28;20431;-68
2022/11/20 10:01:23;;;;;;;1.30;0.60;;;5.50;99.90;;;;;;5073390;28;20472;-68
2022/11/20 10:04:04;;;;;;;1.70;0.80;;;5.60;99.90;;;;;;5072949;28;20419;-68
2022/11/20 10:06:44;;;;;;;1.90;0.90;;;5.60;99.90;;;;;;5059411;28;20463;-68
2022/11/20 10:09:12;;;;;;;1.53;0.70;;;5.60;99.90;;;;;;5072466;28;20543;-68
2022/11/20 10:12:26;;;;;;;1.80;0.80;;;5.60;99.90;;;;;;5072823;28;20455;-68
2022/11/20 10:14:57;;;;;;;1.73;0.67;;;5.70;99.90;;;;;;5010323;28;20438;-68
2022/11/20 10:17:35;;;;;;;2.00;0.90;;;5.70;99.90;;;;;;5072419;28;20434;-68
2022/11/20 10:20:26;;;;;;;5.00;0.83;;;5.80;99.90;;;;;;5067062;28;20424;-68
2022/11/20 10:23:20;;;;;;;1.20;0.67;;;5.70;99.90;;;;;;5067557;28;20423;-68
2022/11/20 10:26:31;;;;;;;2.23;0.90;;;5.70;99.90;;;;;;5072211;28;20799;-68
2022/11/20 10:29:15;;;;;;;1.50;0.70;;;5.70;99.90;;;;;;5072112;28;20888;-68
2022/11/20 10:31:44;;;;;;;1.67;0.90;;;5.80;99.90;;;;;;5072274;28;20423;-68
2022/11/20 10:34:36;;;;;;;1.30;0.60;;;5.80;99.90;;;;;;5072195;28;20435;-69
2022/11/20 10:37:40;;;;;;;1.80;0.70;;;5.90;99.90;;;;;;5045592;28;20811;-68
2022/11/20 10:40:37;;;;;;;2.97;0.93;;;6.00;99.90;;;;;;4967358;28;20440;-68
2022/11/20 10:43:21;;;;;;;1.50;0.70;;;5.90;99.90;;;;;;5066982;28;20431;-68
2022/11/20 10:45:57;;;;;;;1.90;0.90;;;5.90;99.90;;;;;;5072752;28;20422;-68
2022/11/20 10:48:25;;;;;;;1.60;0.83;;;5.90;99.90;;;;;;5072271;28;20423;-68
2022/11/20 10:51:15;;;;;;;1.67;0.60;;;6.00;99.90;;;;;;5072228;28;20420;-68
2022/11/20 10:54:07;;;;;;;1.30;0.70;;;6.10;99.90;;;;;;5060662;28;20420;-68
2022/11/20 10:56:44;;;;;;;2.13;0.60;;;6.20;99.90;;;;;;5072339;28;20446;-68
2022/11/20 10:59:30;;;;;;;1.43;0.70;;;6.40;99.90;;;;;;5071339;28;20846;-68
2022/11/20 11:01:56;;;;;;;1.87;0.70;;;6.60;99.90;;;;;;5071048;28;20421;-68
2022/11/20 11:04:40;;;;;;;1.93;0.80;;;6.70;99.90;;;;;;5069204;28;20432;-68
2022/11/20 11:07:27;;;;;;;2.40;1.13;;;6.80;99.90;;;;;;5070666;28;20661;-68
2022/11/20 11:09:54;;;;;;;7.63;1.77;;;6.80;99.90;;;;;;5060378;28;20415;-68
2022/11/20 11:12:23;;;;;;;2.13;0.93;;;6.90;99.90;;;;;;5071218;28;20441;-68
2022/11/20 11:14:52;;;;;;;2.53;1.10;;;6.90;99.90;;;;;;5064605;28;20419;-68
2022/11/20 11:17:27;;;;;;;1.67;0.70;;;6.90;99.90;;;;;;5052910;28;20439;-68
2022/11/20 11:20:03;;;;;;;4.77;1.13;;;6.90;99.90;;;;;;5067337;28;20412;-68
2022/11/20 11:22:32;;;;;;;3.77;1.27;;;6.90;99.90;;;;;;5070098;28;20419;-68
2022/11/20 11:24:58;;;;;;;1.93;0.80;;;6.90;99.90;;;;;;5071543;28;20459;-68
2022/11/20 11:27:23;;;;;;;1.77;0.80;;;6.90;99.90;;;;;;5071613;28;20615;-68
2022/11/20 11:29:49;;;;;;;2.33;1.10;;;7.00;99.90;;;;;;5071101;28;20185;-68
2022/11/20 11:32:18;;;;;;;2.10;1.43;;;7.00;99.90;;;;;;5071545;28;20637;-68
2022/11/20 11:34:44;;;;;;;1.70;0.73;;;7.00;99.90;;;;;;5071578;28;20188;-68
2022/11/20 11:37:17;;;;;;;2.17;0.70;;;7.00;99.90;;;;;;5071470;28;20912;-68
2022/11/20 11:39:45;;;;;;;1.50;0.70;;;7.10;99.90;;;;;;5071286;28;20194;-68
2022/11/20 11:42:15;;;;;;;1.97;1.07;;;7.20;99.90;;;;;;5071058;28;20597;-68
2022/11/20 11:47:41;;;;;;;1.53;0.70;;;7.00;99.90;;;;;;5071604;28;20490;-68
2022/11/20 11:50:09;;;;;;;2.73;0.93;;;6.90;99.90;;;;;;5070848;28;20418;-68
2022/11/20 11:52:55;;;;;;;1.70;0.90;;;6.80;99.90;;;;;;5070709;28;20900;-68
2022/11/20 11:55:42;;;;;;;3.90;1.30;;;6.90;99.90;;;;;;5047255;28;20432;-67
2022/11/20 11:58:37;;;;;;;1.23;0.70;;;6.80;99.90;;;;;;5070768;28;20795;-68
2022/11/20 12:01:38;;;;;;;3.10;0.80;;;6.90;99.90;;;;;;5071218;28;20480;-68
2022/11/20 12:04:19;;;;;;;1.60;0.70;;;7.10;99.90;;;;;;5071014;28;20510;-67
2022/11/20 12:06:50;;;;;;;1.90;0.73;;;7.00;99.90;;;;;;5070106;28;21092;-68
2022/11/20 12:09:18;;;;;;;1.87;0.90;;;7.00;99.90;;;;;;5070755;28;20415;-68
2022/11/20 12:11:49;;;;;;;1.40;0.70;;;6.90;99.90;;;;;;5071174;28;20411;-68
2022/11/20 12:14:27;;;;;;;2.17;1.00;;;6.80;99.90;;;;;;5071308;28;20832;-67
2022/11/20 12:16:55;;;;;;;5.40;1.10;;;6.70;99.90;;;;;;5071205;28;20423;-68
2022/11/20 12:19:21;;;;;;;6.30;0.80;;;6.70;99.90;;;;;;5075087;28;20423;-67
2022/11/20 12:21:53;;;;;;;3.23;1.00;;;6.70;99.90;;;;;;5068410;28;20893;-68
2022/11/20 12:24:32;;;;;;;3.57;1.03;;;6.70;99.90;;;;;;5074794;28;20622;-68
2022/11/20 12:27:23;;;;;;;1.90;0.83;;;6.80;99.90;;;;;;5075023;28;20492;-68
2022/11/20 12:30:01;;;;;;;1.57;0.77;;;7.00;99.90;;;;;;5074751;28;20418;-68
2022/11/20 12:32:55;;;;;;;2.90;0.80;;;7.30;99.90;;;;;;5074419;28;20411;-67
2022/11/20 12:35:59;;;;;;;3.10;0.90;;;7.60;99.90;;;;;;5074484;28;20430;-67
2022/11/20 12:39:02;;;;;;;2.23;0.90;;;8.00;99.90;;;;;;5074652;28;20411;-65
2022/11/20 12:45:11;;;;;;;1.40;0.67;;;8.20;99.90;;;;;;5063087;28;20403;-66
2022/11/20 12:48:01;;;;;;;1.70;0.90;;;8.20;99.90;;;;;;5074319;28;20464;-66
2022/11/20 12:50:33;;;;;;;5.23;1.60;;;8.10;99.90;;;;;;5074471;28;20462;-66
2022/11/20 12:53:16;;;;;;;4.23;0.80;;;8.10;99.90;;;;;;5060627;28;20942;-66
2022/11/20 12:55:56;;;;;;;2.27;0.70;;;8.10;99.90;;;;;;5074162;28;20438;-66
2022/11/20 12:58:24;;;;;;;2.37;1.00;;;8.20;99.90;;;;;;5074186;28;20416;-66
2022/11/20 13:01:42;;;;;;;2.03;0.50;;;8.10;99.90;;;;;;5074523;28;20480;-66
2022/11/20 13:04:30;;;;;;;4.23;1.20;;;8.10;99.90;;;;;;5032048;28;20486;-66
2022/11/20 13:06:56;;;;;;;2.00;0.80;;;7.90;99.90;;;;;;5072994;28;20459;-66
2022/11/20 13:09:23;;;;;;;3.00;0.90;;;7.70;99.90;;;;;;5073879;28;20419;-66
2022/11/20 13:12:29;;;;;;;1.60;0.60;;;7.80;99.90;;;;;;5073800;28;20426;-66
2022/11/20 13:15:25;;;;;;;1.50;0.50;;;7.70;99.90;;;;;;5060610;28;20424;-66
2022/11/20 13:17:56;;;;;;;1.73;0.70;;;7.60;99.90;;;;;;5061685;28;20453;-66
2022/11/20 13:20:21;;;;;;;1.70;0.80;;;7.60;99.90;;;;;;5073985;28;20466;-66
2022/11/20 13:22:54;;;;;;;2.67;0.80;;;7.50;99.90;;;;;;5073526;28;20830;-67
2022/11/20 13:25:37;;;;;;;1.60;0.80;;;7.50;99.90;;;;;;5072860;28;20181;-66